createdAt,value
2022-08-16T00:00:22.239Z,21.64
2022-08-16T00:02:49.849Z,22.29
2022-08-16T00:05:19.497Z,22.27
2022-08-16T00:07:47.303Z,21.31
2022-08-16T00:10:20.721Z,22.20
2022-08-16T00:12:49.899Z,21.78
2022-08-16T00:15:51.420Z,22.19
2022-08-16T00:18:17.416Z,21.98
2022-08-16T00:20:47.423Z,22.12
2022-08-16T00:23:17.969Z,21.68
2022-08-16T00:26:36.696Z,21.36
2022-08-16T00:28:38.116Z,21.48
2022-08-16T00:31:06.514Z,22.08
2022-08-16T00:33:35.673Z,22.04
2022-08-16T00:36:02.660Z,22.05
2022-08-16T00:38:40.342Z,21.40
2022-08-16T00:41:08.476Z,21.98
2022-08-16T00:43:42.966Z,21.98
2022-08-16T00:46:33.810Z,21.99
2022-08-16T00:49:05.270Z,21.95
2022-08-16T00:51:31.973Z,21.95
2022-08-16T00:53:58.994Z,21.93
2022-08-16T00:56:55.498Z,21.89
2022-08-16T00:59:20.555Z,21.04
2022-08-16T01:01:52.125Z,21.29
2022-08-16T01:04:29.410Z,21.84
2022-08-16T01:07:01.172Z,21.83
2022-08-16T01:09:33.690Z,21.83
2022-08-16T01:12:03.342Z,21.85
2022-08-16T01:14:36.463Z,21.60
2022-08-16T01:17:08.253Z,21.80
2022-08-16T01:19:50.576Z,21.55
2022-08-16T01:22:50.293Z,21.72
2022-08-16T01:25:33.683Z,21.74
2022-08-16T01:28:07.128Z,21.55
2022-08-16T01:30:49.591Z,20.70
2022-08-16T01:33:19.417Z,21.71
2022-08-16T01:35:56.155Z,21.74
2022-08-16T01:38:36.733Z,21.24
2022-08-16T01:41:19.253Z,21.61
2022-08-16T01:43:53.638Z,21.58
2022-08-16T01:46:40.166Z,21.74
2022-08-16T01:49:42.991Z,21.72
2022-08-16T01:52:28.306Z,21.70
2022-08-16T01:55:17.833Z,21.67
2022-08-16T01:57:53.730Z,19.77
2022-08-16T02:00:29.169Z,20.03
2022-08-16T02:02:57.908Z,21.08
2022-08-16T02:05:24.581Z,21.69
2022-08-16T02:07:52.149Z,21.65
2022-08-16T02:10:20.981Z,21.61
2022-08-16T02:12:55.938Z,21.52
2022-08-16T02:15:29.863Z,21.49
2022-08-16T02:18:01.140Z,21.29
2022-08-16T02:20:36.466Z,21.43
2022-08-16T02:23:09.650Z,20.81
2022-08-16T02:25:52.268Z,21.33
2022-08-16T02:28:24.260Z,21.29
2022-08-16T02:30:52.860Z,21.24
2022-08-16T02:33:24.795Z,21.04
2022-08-16T02:36:11.916Z,20.48
2022-08-16T02:38:41.609Z,21.20
2022-08-16T02:41:10.009Z,19.42
2022-08-16T02:43:39.295Z,20.83
2022-08-16T02:46:08.612Z,20.99
2022-08-16T02:48:38.496Z,21.19
2022-08-16T02:51:10.945Z,21.18
2022-08-16T02:53:46.158Z,20.98
2022-08-16T02:56:18.027Z,21.15
2022-08-16T02:58:47.201Z,21.13
2022-08-16T03:01:24.988Z,21.09
2022-08-16T03:04:41.375Z,20.76
2022-08-16T03:07:03.884Z,20.48
2022-08-16T03:09:44.585Z,21.01
2022-08-16T03:12:16.387Z,21.04
2022-08-16T03:14:44.680Z,21.02
2022-08-16T03:17:12.707Z,20.98
2022-08-16T03:19:52.806Z,20.99
2022-08-16T03:22:28.787Z,20.96
2022-08-16T03:25:04.671Z,21.02
2022-08-16T03:27:39.113Z,19.80
2022-08-16T03:30:21.603Z,20.84
2022-08-16T03:32:55.377Z,21.10
2022-08-16T03:35:32.713Z,21.16
2022-08-16T03:38:34.159Z,20.66
2022-08-16T03:40:53.384Z,20.44
2022-08-16T03:43:24.207Z,21.14
2022-08-16T03:46:13.909Z,21.17
2022-08-16T03:49:00.647Z,21.23
2022-08-16T03:51:28.695Z,21.24
2022-08-16T03:54:01.702Z,21.30
2022-08-16T03:56:31.415Z,21.29
2022-08-16T03:59:00.155Z,21.09
2022-08-16T04:01:33.302Z,20.34
2022-08-16T04:04:01.126Z,21.42
2022-08-16T04:06:29.115Z,21.41
2022-08-16T04:08:55.771Z,21.41
2022-08-16T04:11:24.703Z,21.02
2022-08-16T04:14:01.460Z,19.89
2022-08-16T04:16:40.255Z,21.27
2022-08-16T04:19:31.879Z,21.54
2022-08-16T04:22:00.784Z,21.53
2022-08-16T04:24:31.326Z,21.53
2022-08-16T04:26:58.942Z,21.58
2022-08-16T04:29:27.794Z,21.63
2022-08-16T04:32:10.959Z,21.34
2022-08-16T04:34:40.961Z,21.72
2022-08-16T04:37:08.723Z,21.74
2022-08-16T04:39:47.205Z,21.74
2022-08-16T04:42:26.368Z,21.84
2022-08-16T04:44:58.429Z,21.74
2022-08-16T04:47:35.463Z,21.23
2022-08-16T04:50:10.382Z,22.13
2022-08-16T04:52:37.876Z,22.22
2022-08-16T04:55:17.590Z,22.31
2022-08-16T04:57:53.736Z,22.05
2022-08-16T05:00:32.678Z,22.49
2022-08-16T05:03:09.626Z,21.74
2022-08-16T05:05:55.458Z,22.51
2022-08-16T05:08:29.199Z,22.26
2022-08-16T05:11:20.275Z,22.69
2022-08-16T05:13:47.961Z,22.93
2022-08-16T05:16:24.801Z,22.57
2022-08-16T05:18:59.946Z,22.29
2022-08-16T05:21:38.084Z,22.00
2022-08-16T05:24:09.061Z,23.11
2022-08-16T05:26:37.514Z,22.15
2022-08-16T05:29:11.141Z,22.80
2022-08-16T05:31:48.413Z,23.34
2022-08-16T05:34:22.297Z,23.46
2022-08-16T05:36:52.997Z,22.95
2022-08-16T05:39:22.462Z,23.43
2022-08-16T05:41:51.696Z,23.47
2022-08-16T05:44:24.193Z,23.58
2022-08-16T05:46:57.329Z,23.69
2022-08-16T05:49:38.804Z,23.97
2022-08-16T05:52:11.339Z,24.01
2022-08-16T05:54:47.594Z,22.97
2022-08-16T05:57:18.537Z,23.87
2022-08-16T05:59:50.656Z,23.84
2022-08-16T06:02:33.352Z,24.00
2022-08-16T06:05:02.177Z,24.02
2022-08-16T06:07:29.569Z,24.06
2022-08-16T06:10:06.812Z,23.33
2022-08-16T06:12:37.009Z,23.98
2022-08-16T06:15:11.618Z,22.73
2022-08-16T06:17:44.389Z,24.31
2022-08-16T06:20:23.426Z,24.04
2022-08-16T06:22:58.859Z,24.05
2022-08-16T06:25:39.474Z,23.62
2022-08-16T06:28:10.297Z,22.87
2022-08-16T06:30:45.297Z,24.32
2022-08-16T06:33:22.222Z,24.48
2022-08-16T06:35:55.202Z,24.51
2022-08-16T06:38:33.889Z,24.56
2022-08-16T06:41:07.280Z,24.55
2022-08-16T06:43:41.960Z,24.07
2022-08-16T06:46:31.641Z,24.55
2022-08-16T06:49:05.226Z,24.40
2022-08-16T06:51:45.789Z,24.18
2022-08-16T06:54:16.619Z,24.25
2022-08-16T06:56:43.638Z,24.23
2022-08-16T06:59:13.666Z,22.80
2022-08-16T07:01:54.388Z,23.71
2022-08-16T07:04:33.420Z,24.87
2022-08-16T07:07:20.373Z,24.92
2022-08-16T07:09:51.394Z,24.65
2022-08-16T07:12:19.464Z,25.84
2022-08-16T07:14:49.471Z,25.99
2022-08-16T07:17:22.991Z,25.61
2022-08-16T07:20:02.479Z,26.20
2022-08-16T07:22:41.372Z,26.11
2022-08-16T07:25:18.474Z,26.28
2022-08-16T07:27:45.560Z,26.28
2022-08-16T07:30:39.193Z,26.64
2022-08-16T07:33:07.234Z,26.69
2022-08-16T07:35:36.606Z,26.68
2022-08-16T07:38:12.013Z,26.73
2022-08-16T07:41:00.755Z,26.77
2022-08-16T07:43:29.711Z,26.76
2022-08-16T07:46:01.425Z,26.71
2022-08-16T07:48:29.753Z,26.34
2022-08-16T07:50:59.762Z,26.27
2022-08-16T07:53:32.330Z,26.39
2022-08-16T07:56:04.397Z,26.48
2022-08-16T07:58:37.851Z,26.35
2022-08-16T08:01:12.463Z,26.73
2022-08-16T08:03:50.125Z,26.72
2022-08-16T08:06:27.715Z,26.51
2022-08-16T08:08:59.232Z,26.27
2022-08-16T08:11:29.401Z,26.39
2022-08-16T08:14:03.609Z,26.21
2022-08-16T08:16:37.512Z,25.70
2022-08-16T08:19:09.421Z,25.91
2022-08-16T08:22:01.177Z,26.27
2022-08-16T08:24:33.145Z,26.03
2022-08-16T08:27:04.412Z,26.37
2022-08-16T08:29:37.174Z,26.54
2022-08-16T08:32:58.045Z,26.71
2022-08-16T08:35:00.503Z,26.13
2022-08-16T08:37:54.818Z,27.13
2022-08-16T08:40:19.371Z,27.03
2022-08-16T08:42:57.803Z,26.49
2022-08-16T08:45:48.917Z,26.89
2022-08-16T08:48:34.835Z,26.68
2022-08-16T08:51:09.153Z,26.31
2022-08-16T08:53:46.652Z,26.14
2022-08-16T08:56:26.540Z,25.74
2022-08-16T08:59:06.037Z,25.67
2022-08-16T09:01:43.078Z,26.44
2022-08-16T09:04:24.163Z,26.43
2022-08-16T09:06:53.602Z,24.68
2022-08-16T09:09:22.894Z,26.28
2022-08-16T09:12:06.018Z,26.44
2022-08-16T09:14:50.806Z,26.74
2022-08-16T09:17:47.112Z,26.70
2022-08-16T09:20:13.546Z,27.41
2022-08-16T09:22:41.856Z,27.61
2022-08-16T09:25:11.326Z,27.86
2022-08-16T09:27:46.722Z,27.56
2022-08-16T09:30:34.378Z,28.39
2022-08-16T09:33:06.802Z,28.76
2022-08-16T09:35:37.289Z,29.13
2022-08-16T09:38:08.481Z,29.16
2022-08-16T09:40:42.300Z,29.10
2022-08-16T09:43:46.435Z,29.16
2022-08-16T09:46:00.734Z,29.08
2022-08-16T09:48:37.187Z,29.53
2022-08-16T09:51:13.051Z,28.63
2022-08-16T09:53:41.782Z,30.40
2022-08-16T09:56:36.368Z,30.47
2022-08-16T09:59:08.302Z,31.43
2022-08-16T10:01:36.669Z,31.10
2022-08-16T10:04:13.102Z,32.01
2022-08-16T10:06:54.232Z,32.19
2022-08-16T10:09:25.484Z,32.16
2022-08-16T10:12:31.059Z,32.27
2022-08-16T10:14:57.655Z,32.66
2022-08-16T10:17:24.912Z,32.87
2022-08-16T10:19:52.986Z,33.11
2022-08-16T10:22:22.923Z,32.60
2022-08-16T10:24:59.345Z,32.29
2022-08-16T10:27:28.889Z,31.86
2022-08-16T10:30:01.033Z,31.91
2022-08-16T10:32:30.307Z,31.64
2022-08-16T10:34:57.717Z,32.26
2022-08-16T10:37:32.716Z,32.25
2022-08-16T10:40:29.132Z,31.94
2022-08-16T10:42:56.522Z,32.13
2022-08-16T10:45:23.388Z,31.75
2022-08-16T10:47:58.861Z,32.45
2022-08-16T10:50:30.552Z,32.71
2022-08-16T10:52:59.452Z,32.24
2022-08-16T10:55:44.163Z,33.73
2022-08-16T10:58:13.441Z,33.75
2022-08-16T11:00:46.157Z,33.86
2022-08-16T11:06:00.805Z,34.53
2022-08-16T11:08:36.095Z,34.79
2022-08-16T11:11:12.964Z,35.79
2022-08-16T11:14:05.956Z,35.98
2022-08-16T11:19:22.801Z,35.37
2022-08-16T11:24:42.221Z,34.03
2022-08-16T11:27:19.922Z,33.76
2022-08-16T11:29:52.865Z,33.47
2022-08-16T11:32:30.005Z,33.06
2022-08-16T11:35:16.276Z,32.53
2022-08-16T11:40:52.170Z,33.15
2022-08-16T11:43:23.727Z,33.40
2022-08-16T11:45:54.889Z,34.04
2022-08-16T11:48:28.651Z,33.74
2022-08-16T11:50:56.383Z,34.35
2022-08-16T11:53:24.269Z,33.97
2022-08-16T11:55:55.385Z,32.02
2022-08-16T11:58:26.495Z,31.92
2022-08-16T12:00:57.538Z,31.25
2022-08-16T12:03:34.288Z,30.68
2022-08-16T12:06:10.630Z,30.50
2022-08-16T12:08:39.567Z,30.14
2022-08-16T12:11:08.249Z,29.74
2022-08-16T12:13:36.169Z,29.13
2022-08-16T12:16:02.983Z,28.83
2022-08-16T12:18:30.405Z,29.73
2022-08-16T12:20:58.292Z,30.07
2022-08-16T12:23:26.914Z,30.19
2022-08-16T12:25:53.717Z,28.87
2022-08-16T12:28:25.379Z,30.48
2022-08-16T12:31:07.640Z,31.57
2022-08-16T12:33:42.746Z,33.12
2022-08-16T12:36:12.980Z,31.82
2022-08-16T12:38:47.982Z,32.63
2022-08-16T12:41:24.696Z,32.08
2022-08-16T12:43:57.272Z,31.59
2022-08-16T12:46:28.126Z,32.11
2022-08-16T12:49:00.463Z,33.18
2022-08-16T12:51:58.033Z,35.64
2022-08-16T12:54:22.910Z,36.67
2022-08-16T12:56:50.273Z,37.14
2022-08-16T12:59:20.405Z,36.54
2022-08-16T13:01:50.305Z,35.46
2022-08-16T13:04:20.317Z,34.29
2022-08-16T13:06:48.694Z,32.93
2022-08-16T13:09:20.977Z,32.22
2022-08-16T13:12:03.731Z,31.32
2022-08-16T13:14:37.940Z,31.17
2022-08-16T13:17:08.998Z,31.09
2022-08-16T13:20:05.503Z,31.25
2022-08-16T13:22:23.689Z,31.20
2022-08-16T13:24:52.518Z,31.05
2022-08-16T13:27:19.154Z,30.70
2022-08-16T13:29:50.060Z,29.30
2022-08-16T13:32:39.897Z,29.72
2022-08-16T13:35:08.153Z,30.09
2022-08-16T13:37:38.633Z,29.96
2022-08-16T13:40:07.335Z,29.97
2022-08-16T13:42:41.524Z,28.47
2022-08-16T13:45:15.619Z,29.14
2022-08-16T13:47:42.692Z,28.30
2022-08-16T13:50:11.091Z,28.95
2022-08-16T13:52:39.931Z,28.56
2022-08-16T13:55:17.608Z,28.66
2022-08-16T13:58:34.388Z,28.13
2022-08-16T14:00:31.652Z,28.17
2022-08-16T14:02:59.222Z,27.83
2022-08-16T14:05:27.256Z,28.03
2022-08-16T14:07:53.927Z,28.08
2022-08-16T14:10:21.111Z,27.37
2022-08-16T14:12:48.332Z,27.79
2022-08-16T14:15:16.170Z,27.99
2022-08-16T14:18:15.434Z,28.06
2022-08-16T14:20:30.055Z,28.11
2022-08-16T14:22:57.121Z,27.92
2022-08-16T14:25:24.488Z,27.59
2022-08-16T14:27:52.331Z,28.44
2022-08-16T14:30:21.625Z,27.69
2022-08-16T14:33:07.142Z,28.36
2022-08-16T14:35:52.826Z,28.20
2022-08-16T14:38:39.462Z,27.65
2022-08-16T14:41:25.621Z,27.58
2022-08-16T14:44:11.289Z,27.98
2022-08-16T14:46:56.854Z,27.43
2022-08-16T14:49:42.288Z,27.69
2022-08-16T14:52:54.187Z,27.31
2022-08-16T14:55:36.487Z,27.55
2022-08-16T14:58:34.719Z,27.42
2022-08-16T15:01:23.739Z,27.31
2022-08-16T15:04:08.994Z,26.58
2022-08-16T15:06:35.585Z,26.83
2022-08-16T15:09:02.137Z,27.12
2022-08-16T15:11:28.757Z,26.58
2022-08-16T15:13:59.711Z,26.78
2022-08-16T15:16:28.878Z,26.92
2022-08-16T15:18:55.878Z,26.82
2022-08-16T15:21:22.519Z,26.75
2022-08-16T15:23:49.623Z,26.54
2022-08-16T15:26:34.514Z,26.71
2022-08-16T15:29:01.288Z,25.83
2022-08-16T15:31:28.026Z,26.12
2022-08-16T15:33:57.995Z,26.32
2022-08-16T15:36:25.843Z,26.73
2022-08-16T15:39:05.583Z,26.73
2022-08-16T15:41:42.729Z,26.69
2022-08-16T15:44:21.158Z,25.85
2022-08-16T15:46:55.805Z,26.67
2022-08-16T15:49:37.736Z,26.07
2022-08-16T15:52:15.725Z,26.42
2022-08-16T15:54:53.324Z,26.64
2022-08-16T15:57:24.188Z,26.60
2022-08-16T15:59:58.406Z,26.52
2022-08-16T16:02:38.585Z,26.40
2022-08-16T16:05:09.760Z,25.79
2022-08-16T16:07:40.824Z,25.88
2022-08-16T16:10:23.258Z,25.67
2022-08-16T16:12:59.647Z,25.18
2022-08-16T16:15:32.207Z,26.01
2022-08-16T16:17:59.380Z,26.13
2022-08-16T16:20:32.980Z,25.24
2022-08-16T16:23:10.607Z,25.73
2022-08-16T16:25:39.770Z,25.17
2022-08-16T16:29:05.958Z,26.01
2022-08-16T16:31:07.549Z,25.98
2022-08-16T16:33:39.865Z,25.74
2022-08-16T16:36:07.860Z,25.07
2022-08-16T16:38:35.268Z,25.97
2022-08-16T16:41:09.072Z,25.24
2022-08-16T16:43:41.762Z,25.37
2022-08-16T16:46:41.345Z,25.74
2022-08-16T16:48:57.228Z,25.15
2022-08-16T16:51:24.472Z,25.93
2022-08-16T16:53:56.911Z,25.28
2022-08-16T16:56:30.274Z,25.83
2022-08-16T16:59:08.808Z,25.73
2022-08-16T17:01:59.633Z,25.44
2022-08-16T17:04:32.868Z,25.61
2022-08-16T17:07:01.539Z,25.39
2022-08-16T17:09:28.741Z,24.79
2022-08-16T17:11:56.685Z,25.39
2022-08-16T17:14:33.392Z,24.53
2022-08-16T17:17:08.445Z,24.06
2022-08-16T17:19:41.228Z,25.07
2022-08-16T17:22:14.434Z,24.66
2022-08-16T17:24:50.981Z,25.03
2022-08-16T17:27:33.050Z,25.11
2022-08-16T17:30:15.547Z,24.96
2022-08-16T17:33:01.742Z,24.52
2022-08-16T17:35:37.493Z,24.93
2022-08-16T17:38:09.380Z,24.84
2022-08-16T17:40:47.458Z,24.90
2022-08-16T17:43:35.173Z,24.85
2022-08-16T17:46:04.842Z,24.69
2022-08-16T17:48:35.440Z,23.69
2022-08-16T17:51:06.368Z,24.69
2022-08-16T17:53:35.514Z,24.65
2022-08-16T17:56:03.474Z,24.65
2022-08-16T17:58:30.184Z,24.42
2022-08-16T18:01:00.058Z,24.58
2022-08-16T18:04:02.377Z,24.56
2022-08-16T18:06:23.874Z,24.51
2022-08-16T18:08:57.938Z,24.27
2022-08-16T18:11:30.166Z,24.44
2022-08-16T18:13:59.920Z,24.16
2022-08-16T18:16:26.891Z,23.79
2022-08-16T18:18:53.722Z,24.38
2022-08-16T18:21:39.087Z,24.38
2022-08-16T18:24:05.865Z,23.82
2022-08-16T18:26:32.853Z,23.97
2022-08-16T18:28:59.448Z,24.28
2022-08-16T18:31:26.171Z,24.23
2022-08-16T18:33:55.818Z,23.63
2022-08-16T18:36:24.215Z,24.20
2022-08-16T18:38:52.382Z,24.20
2022-08-16T18:41:21.424Z,24.11
2022-08-16T18:44:22.510Z,24.24
2022-08-16T18:46:34.827Z,24.24
2022-08-16T18:49:01.407Z,24.21
2022-08-16T18:51:27.981Z,23.66
2022-08-16T18:53:54.699Z,23.73
2022-08-16T18:56:21.460Z,23.09
2022-08-16T18:58:48.097Z,24.05
2022-08-16T19:01:14.700Z,24.03
2022-08-16T19:03:41.344Z,23.89
2022-08-16T19:06:13.684Z,23.99
2022-08-16T19:08:43.666Z,20.90
2022-08-16T19:11:15.003Z,23.77
2022-08-16T19:13:44.289Z,23.90
2022-08-16T19:16:12.349Z,23.66
2022-08-16T19:18:39.119Z,23.82
2022-08-16T19:21:06.968Z,23.79
2022-08-16T19:23:35.958Z,23.62
2022-08-16T19:26:25.738Z,23.43
2022-08-16T19:28:59.602Z,23.78
2022-08-16T19:31:34.269Z,23.78
2022-08-16T19:34:03.868Z,23.77
2022-08-16T19:36:36.921Z,23.79
2022-08-16T19:39:09.628Z,23.75
2022-08-16T19:41:53.120Z,23.71
2022-08-16T19:44:22.442Z,22.20
2022-08-16T19:46:49.599Z,23.57
2022-08-16T19:49:17.006Z,22.88
2022-08-16T19:51:45.731Z,23.25
2022-08-16T19:54:12.302Z,23.66
2022-08-16T19:56:39.113Z,23.65
2022-08-16T19:59:39.052Z,23.29
2022-08-16T20:01:53.163Z,23.58
2022-08-16T20:04:21.792Z,23.56
2022-08-16T20:06:48.925Z,23.15
2022-08-16T20:09:16.172Z,23.41
2022-08-16T20:11:46.629Z,23.52
2022-08-16T20:14:24.360Z,23.52
2022-08-16T20:16:54.191Z,23.48
2022-08-16T20:19:21.101Z,22.39
2022-08-16T20:21:47.852Z,23.37
2022-08-16T20:24:33.598Z,23.37
2022-08-16T20:27:02.245Z,23.29
2022-08-16T20:29:29.364Z,23.27
2022-08-16T20:31:56.014Z,23.25
2022-08-16T20:34:22.594Z,23.25
2022-08-16T20:36:49.261Z,22.79
2022-08-16T20:39:15.968Z,23.03
2022-08-16T20:41:43.392Z,22.67
2022-08-16T20:44:11.229Z,22.55
2022-08-16T20:46:39.780Z,23.02
2022-08-16T20:49:08.840Z,23.33
2022-08-16T20:51:47.048Z,23.32
2022-08-16T20:54:18.394Z,22.84
2022-08-16T20:56:45.657Z,23.00
2022-08-16T20:59:13.538Z,23.03
2022-08-16T21:01:46.494Z,23.00
2022-08-16T21:04:23.356Z,23.06
2022-08-16T21:06:55.033Z,22.51
2022-08-16T21:09:24.912Z,22.89
2022-08-16T21:11:53.406Z,23.04
2022-08-16T21:14:21.198Z,23.02
2022-08-16T21:16:48.702Z,23.02
2022-08-16T21:19:16.674Z,22.70
2022-08-16T21:21:43.975Z,22.98
2022-08-16T21:24:11.527Z,22.60
2022-08-16T21:26:38.903Z,22.93
2022-08-16T21:29:07.847Z,22.70
2022-08-16T21:31:40.367Z,22.82
2022-08-16T21:34:08.308Z,22.81
2022-08-16T21:36:36.537Z,22.62
2022-08-16T21:39:06.117Z,21.86
2022-08-16T21:41:33.942Z,22.58
2022-08-16T21:44:00.527Z,22.55
2022-08-16T21:46:27.115Z,22.71
2022-08-16T21:48:53.670Z,22.37
2022-08-16T21:51:20.602Z,22.20
2022-08-16T21:53:47.256Z,21.79
2022-08-16T21:56:17.060Z,22.00
2022-08-16T21:58:45.501Z,22.53
2022-08-16T22:01:13.145Z,20.12
2022-08-16T22:03:39.797Z,21.71
2022-08-16T22:06:14.119Z,21.65
2022-08-16T22:08:49.813Z,22.37
2022-08-16T22:11:22.924Z,22.39
2022-08-16T22:13:58.187Z,21.59
2022-08-16T22:16:32.094Z,21.74
2022-08-16T22:18:59.633Z,21.47
2022-08-16T22:21:26.656Z,22.19
2022-08-16T22:23:56.814Z,21.97
2022-08-16T22:26:30.101Z,22.03
2022-08-16T22:29:04.448Z,22.08
2022-08-16T22:31:31.252Z,21.70
2022-08-16T22:33:58.710Z,21.98
2022-08-16T22:36:28.524Z,21.97
2022-08-16T22:38:57.928Z,21.60
2022-08-16T22:41:25.468Z,21.89
2022-08-16T22:43:52.338Z,21.87
2022-08-16T22:46:19.582Z,21.85
2022-08-16T22:48:50.093Z,21.82
2022-08-16T22:51:17.707Z,21.61
2022-08-16T22:53:44.343Z,20.81
2022-08-16T22:56:11.031Z,21.18
2022-08-16T22:58:37.674Z,20.44
2022-08-16T23:01:09.770Z,21.76
2022-08-16T23:03:37.437Z,21.79
2022-08-16T23:06:05.536Z,21.63
2022-08-16T23:08:39.414Z,21.52
2022-08-16T23:11:12.846Z,21.79
2022-08-16T23:13:53.339Z,21.76
2022-08-16T23:16:28.741Z,21.55
2022-08-16T23:18:59.933Z,21.25
2022-08-16T23:21:26.658Z,21.80
2022-08-16T23:23:53.995Z,21.53
2022-08-16T23:26:46.266Z,20.93
2022-08-16T23:29:07.595Z,21.73
2022-08-16T23:31:49.173Z,21.74
2022-08-16T23:34:16.056Z,21.72
2022-08-16T23:36:42.686Z,21.69
2022-08-16T23:39:09.201Z,20.24
2022-08-16T23:41:35.938Z,21.64
2022-08-16T23:44:02.740Z,21.63
2022-08-16T23:46:49.352Z,21.24
2022-08-16T23:49:56.712Z,21.52
2022-08-16T23:52:07.681Z,21.20
2022-08-16T23:54:35.619Z,21.27
2022-08-16T23:57:03.138Z,21.54
2022-08-16T23:59:29.944Z,21.45
